Time;durP1;ratioP1;P1;durP2;ratioP2;P2;SDS_P1;SDS_P2;PMS_P1;PMS_P2;Temp;Humidity;BMP_temperature;BMP_pressure;BME280_temperature;BME280_humidity;BME280_pressure;Samples;Min_cycle;Max_cycle;Signal;HPM_P1;HPM_P2
2022/05/12 00:00:17;;;;;;;26.70;7.10;;;18.80;94.80;;;;;;5072012;28;20175;-77
2022/05/12 00:02:45;;;;;;;27.33;7.43;;;18.80;94.50;;;;;;5072862;28;20190;-74
2022/05/12 00:05:14;;;;;;;29.43;7.40;;;19.00;94.30;;;;;;5073083;28;20224;-74
2022/05/12 00:07:43;;;;;;;28.73;8.00;;;19.10;93.90;;;;;;5073643;28;20569;-75
2022/05/12 00:10:12;;;;;;;28.47;8.10;;;19.20;93.70;;;;;;5071949;28;20648;-76
2022/05/12 00:12:40;;;;;;;38.20;8.73;;;19.20;93.50;;;;;;5071763;28;20215;-75
2022/05/12 00:15:13;;;;;;;29.67;8.47;;;19.20;93.50;;;;;;5073678;28;20175;-75
2022/05/12 00:17:44;;;;;;;34.73;9.27;;;19.30;93.40;;;;;;5070708;28;20210;-74
2022/05/12 00:20:14;;;;;;;30.47;9.53;;;19.40;93.40;;;;;;5072433;28;20297;-74
2022/05/12 00:22:41;;;;;;;39.37;9.30;;;19.50;93.50;;;;;;5073230;28;20187;-74
2022/05/12 00:25:17;;;;;;;39.13;9.27;;;19.60;93.30;;;;;;5072162;28;20702;-74
2022/05/12 00:27:45;;;;;;;29.67;8.87;;;19.50;93.30;;;;;;5071829;28;20617;-74
2022/05/12 00:30:13;;;;;;;41.70;10.13;;;19.60;93.30;;;;;;5069526;28;20537;-74
2022/05/12 00:32:44;;;;;;;30.50;8.50;;;19.60;93.30;;;;;;5071810;28;20202;-73
2022/05/12 00:35:14;;;;;;;39.60;8.67;;;19.70;93.20;;;;;;5063025;28;20174;-74
2022/05/12 00:37:43;;;;;;;31.03;8.77;;;19.70;93.00;;;;;;5090684;28;20181;-74
2022/05/12 00:40:12;;;;;;;35.33;7.83;;;19.60;92.90;;;;;;5072037;28;20222;-81
2022/05/12 00:43:02;;;;;;;20.27;6.90;;;19.60;92.60;;;;;;5073070;28;20704;-74
2022/05/12 00:45:32;;;;;;;28.27;8.27;;;19.40;93.00;;;;;;5072290;28;20180;-76
2022/05/12 00:48:00;;;;;;;31.97;9.63;;;19.40;93.60;;;;;;5071520;28;20163;-74
2022/05/12 00:50:46;;;;;;;31.13;9.40;;;19.30;94.00;;;;;;5072693;28;20182;-75
2022/05/12 00:53:14;;;;;;;27.10;9.60;;;19.30;94.20;;;;;;5078597;28;20608;-77
2022/05/12 00:55:45;;;;;;;23.87;11.17;;;19.30;94.40;;;;;;5090728;28;20171;-75
2022/05/12 00:58:16;;;;;;;33.87;11.47;;;19.30;94.50;;;;;;5079006;28;20185;-77
2022/05/12 01:00:47;;;;;;;36.33;12.23;;;19.30;94.50;;;;;;5073126;28;20551;-76
2022/05/12 01:03:52;;;;;;;34.33;11.50;;;19.30;94.60;;;;;;5070821;28;20189;-79
2022/05/12 01:06:45;;;;;;;29.97;12.60;;;19.40;94.60;;;;;;5069879;28;20209;-77
2022/05/12 01:09:23;;;;;;;45.13;12.57;;;19.40;94.60;;;;;;5065564;28;20197;-79
2022/05/12 01:11:51;;;;;;;34.83;11.87;;;19.50;94.70;;;;;;5072326;28;20652;-80
2022/05/12 01:14:19;;;;;;;43.67;13.07;;;19.50;94.60;;;;;;5073281;28;20266;-77
2022/05/12 01:16:49;;;;;;;38.10;15.53;;;19.50;94.40;;;;;;5070912;28;20202;-79
2022/05/12 01:22:45;;;;;;;45.43;12.63;;;19.60;94.30;;;;;;5070414;28;20195;-85
2022/05/12 01:25:26;;;;;;;32.00;12.33;;;19.70;94.30;;;;;;5060615;28;20383;-83
2022/05/12 01:28:06;;;;;;;44.00;12.93;;;19.80;94.40;;;;;;5071328;28;20747;-81
2022/05/12 01:30:33;;;;;;;39.53;12.47;;;19.90;94.20;;;;;;5078354;28;20190;-76
2022/05/12 01:33:20;;;;;;;38.90;13.00;;;20.00;94.00;;;;;;5071904;28;20671;-79
2022/05/12 01:35:51;;;;;;;44.67;12.00;;;20.00;93.40;;;;;;5071400;28;20172;-80
2022/05/12 01:38:20;;;;;;;33.27;9.37;;;20.20;93.00;;;;;;5072172;28;20203;-80
2022/05/12 01:40:48;;;;;;;36.67;8.97;;;20.20;91.90;;;;;;5071287;28;20292;-79
2022/05/12 01:43:16;;;;;;;39.30;9.90;;;20.20;91.90;;;;;;5071007;28;20266;-75
2022/05/12 01:45:47;;;;;;;43.27;9.50;;;20.30;92.10;;;;;;5074209;28;20270;-82
2022/05/12 01:48:19;;;;;;;34.70;8.73;;;20.30;92.10;;;;;;5081902;28;20566;-83
2022/05/12 01:50:57;;;;;;;29.43;8.30;;;20.30;91.00;;;;;;5083182;28;20228;-79
2022/05/12 01:56:49;;;;;;;34.87;10.17;;;20.40;91.30;;;;;;5085627;28;20598;-76
2022/05/12 01:59:18;;;;;;;45.10;10.63;;;20.50;91.70;;;;;;5089868;28;20199;-80
2022/05/12 02:01:47;;;;;;;36.53;9.40;;;20.40;91.40;;;;;;5071518;28;20187;-76
2022/05/12 02:04:15;;;;;;;36.87;8.60;;;20.40;91.60;;;;;;5074868;28;20187;-75
2022/05/12 02:06:43;;;;;;;36.80;9.23;;;20.40;91.80;;;;;;5073156;28;20183;-76
2022/05/12 02:09:12;;;;;;;40.53;10.23;;;20.50;92.00;;;;;;5072881;28;20583;-77
2022/05/12 02:11:39;;;;;;;40.00;9.70;;;20.50;92.00;;;;;;5073245;28;20527;-79
2022/05/12 02:14:07;;;;;;;34.83;8.73;;;20.50;91.70;;;;;;5060964;28;20594;-79
2022/05/12 02:16:35;;;;;;;39.37;10.73;;;20.60;91.70;;;;;;5079360;28;21733;-78
2022/05/12 02:19:05;;;;;;;40.77;9.13;;;20.80;91.30;;;;;;5076951;28;20650;-80
2022/05/12 02:21:34;;;;;;;37.17;7.13;;;20.80;90.20;;;;;;5075687;28;20183;-79
2022/05/12 02:24:02;;;;;;;39.53;8.20;;;20.90;89.70;;;;;;5065625;28;20180;-75
2022/05/12 02:26:30;;;;;;;43.77;7.37;;;21.10;89.40;;;;;;5087175;28;20219;-73
2022/05/12 02:28:58;;;;;;;41.60;7.50;;;21.20;88.80;;;;;;5072566;28;20214;-74
2022/05/12 02:31:26;;;;;;;35.43;6.43;;;21.20;87.90;;;;;;5091734;28;20190;-72
2022/05/12 02:33:53;;;;;;;46.23;6.83;;;21.20;87.00;;;;;;5094758;28;20210;-73
2022/05/12 02:36:21;;;;;;;38.63;5.90;;;21.30;87.20;;;;;;5093167;28;20182;-74
2022/05/12 02:38:49;;;;;;;29.40;5.70;;;21.20;87.80;;;;;;5077258;28;20178;-73
2022/05/12 02:41:16;;;;;;;32.33;6.73;;;21.10;87.60;;;;;;5074135;28;20569;-74
2022/05/12 02:43:43;;;;;;;41.43;6.60;;;21.00;88.40;;;;;;5076682;28;20305;-80
2022/05/12 02:46:13;;;;;;;38.33;7.10;;;21.00;88.70;;;;;;5075024;28;20273;-76
2022/05/12 02:48:43;;;;;;;37.60;7.60;;;20.90;88.50;;;;;;5073245;28;20189;-74
2022/05/12 02:51:12;;;;;;;38.37;8.20;;;21.00;89.10;;;;;;5085799;28;20179;-74
2022/05/12 02:53:40;;;;;;;34.87;7.33;;;20.90;89.10;;;;;;5060606;28;20263;-73
2022/05/12 02:56:09;;;;;;;33.37;7.77;;;20.80;89.30;;;;;;5075389;28;20200;-74
2022/05/12 02:58:37;;;;;;;44.30;6.97;;;20.70;89.70;;;;;;5074091;28;20222;-75
2022/05/12 03:01:05;;;;;;;41.43;8.37;;;20.60;89.80;;;;;;5071106;28;20180;-75
2022/05/12 03:03:32;;;;;;;33.80;7.53;;;20.50;90.50;;;;;;5066057;28;20183;-84
2022/05/12 03:06:00;;;;;;;32.67;7.43;;;20.20;91.50;;;;;;5075255;28;20187;-79
2022/05/12 03:08:27;;;;;;;29.67;7.57;;;20.00;92.10;;;;;;5083755;28;20178;-79
2022/05/12 03:10:55;;;;;;;28.57;8.63;;;19.90;92.40;;;;;;5080777;28;20190;-82
2022/05/12 03:13:23;;;;;;;27.77;9.30;;;19.80;92.60;;;;;;5070919;28;20210;-80
2022/05/12 03:15:50;;;;;;;32.90;9.83;;;19.80;93.00;;;;;;5063687;28;20302;-76
2022/05/12 03:18:19;;;;;;;33.43;11.17;;;19.70;93.20;;;;;;5057129;28;20180;-83
2022/05/12 03:20:46;;;;;;;38.07;11.03;;;19.70;93.30;;;;;;5055448;28;20179;-78
2022/05/12 03:23:14;;;;;;;29.27;10.50;;;19.80;93.40;;;;;;5071385;28;20195;-83
2022/05/12 03:25:43;;;;;;;42.70;14.13;;;19.90;93.10;;;;;;5073461;28;20182;-82
2022/05/12 03:28:11;;;;;;;37.33;13.00;;;19.90;92.90;;;;;;5073459;28;20183;-82
2022/05/12 03:30:38;;;;;;;33.93;10.87;;;19.90;93.00;;;;;;5073215;28;20175;-85
2022/05/12 03:33:06;;;;;;;33.67;12.23;;;20.00;92.70;;;;;;5074654;28;20206;-78
2022/05/12 03:35:34;;;;;;;43.00;10.60;;;20.00;92.90;;;;;;5074764;28;20217;-81
2022/05/12 03:38:03;;;;;;;40.50;10.97;;;20.10;92.40;;;;;;5074243;28;20175;-81
2022/05/12 03:40:31;;;;;;;40.50;10.20;;;20.10;92.10;;;;;;5074616;28;20633;-80
2022/05/12 03:42:58;;;;;;;42.83;10.27;;;20.30;92.20;;;;;;5074079;28;20223;-79
2022/05/12 03:45:27;;;;;;;40.47;10.20;;;20.30;92.00;;;;;;5074709;28;20191;-77
2022/05/12 03:47:55;;;;;;;36.57;8.43;;;20.30;91.90;;;;;;5073607;28;20176;-79
2022/05/12 03:50:26;;;;;;;41.97;8.87;;;20.30;91.30;;;;;;5072864;28;20218;-76
2022/05/12 03:52:55;;;;;;;46.77;8.30;;;20.40;91.40;;;;;;5073860;28;20242;-78
2022/05/12 03:55:26;;;;;;;43.63;9.73;;;20.30;91.50;;;;;;5073710;28;20525;-77
2022/05/12 03:57:55;;;;;;;39.57;9.07;;;20.40;91.60;;;;;;5073880;28;20175;-76
2022/05/12 04:00:29;;;;;;;37.17;9.10;;;20.40;91.40;;;;;;5073667;28;20198;-75
2022/05/12 04:02:57;;;;;;;34.97;7.30;;;20.50;91.50;;;;;;5072924;28;20237;-74
2022/05/12 04:05:25;;;;;;;36.33;8.37;;;20.50;91.00;;;;;;5073785;28;20619;-74
2022/05/12 04:07:52;;;;;;;30.17;7.80;;;20.50;90.90;;;;;;5072463;28;20214;-75
2022/05/12 04:10:21;;;;;;;45.43;10.67;;;20.50;91.20;;;;;;5073471;28;20175;-76
2022/05/12 04:12:49;;;;;;;47.20;8.90;;;20.50;91.30;;;;;;5073447;28;20203;-73
2022/05/12 04:15:17;;;;;;;41.63;8.63;;;20.60;91.50;;;;;;5073299;28;20186;-76
2022/05/12 04:17:47;;;;;;;44.63;10.20;;;20.50;91.30;;;;;;5069263;28;20576;-75
2022/05/12 04:20:14;;;;;;;36.40;9.80;;;20.60;91.40;;;;;;5053016;28;20256;-77
2022/05/12 04:22:45;;;;;;;30.60;7.93;;;20.60;91.20;;;;;;5065678;28;20206;-78
2022/05/12 04:25:13;;;;;;;37.43;8.37;;;20.60;90.80;;;;;;5073516;28;20324;-74
2022/05/12 04:27:41;;;;;;;40.87;7.90;;;20.70;91.00;;;;;;5073029;28;20638;-75
2022/05/12 04:30:11;;;;;;;34.43;7.90;;;20.70;89.90;;;;;;5073510;28;20692;-75
2022/05/12 04:32:39;;;;;;;40.03;7.30;;;20.70;89.20;;;;;;5073066;28;20240;-76
2022/05/12 04:35:14;;;;;;;31.17;6.00;;;20.70;88.60;;;;;;5073243;28;20183;-74
2022/05/12 04:37:45;;;;;;;30.90;6.67;;;20.80;88.40;;;;;;5073176;28;20257;-72
2022/05/12 04:40:19;;;;;;;33.17;6.07;;;20.80;88.30;;;;;;5073205;28;20262;-74
2022/05/12 04:42:49;;;;;;;28.57;5.30;;;20.80;87.70;;;;;;5072960;28;20215;-74
2022/05/12 04:45:21;;;;;;;35.07;6.87;;;20.80;87.50;;;;;;5071733;28;20190;-80
2022/05/12 04:47:48;;;;;;;33.80;6.00;;;20.80;87.40;;;;;;5072878;28;20254;-82
2022/05/12 04:50:22;;;;;;;30.63;6.27;;;20.80;87.80;;;;;;5072689;28;20711;-72
2022/05/12 04:52:50;;;;;;;31.70;6.20;;;20.80;87.10;;;;;;5072535;28;20215;-75
2022/05/12 04:55:18;;;;;;;35.40;5.80;;;20.80;87.50;;;;;;5072948;28;20174;-73
2022/05/12 04:57:48;;;;;;;29.37;5.63;;;20.80;87.60;;;;;;5072213;28;20179;-79
2022/05/12 05:00:22;;;;;;;32.37;5.97;;;20.80;88.00;;;;;;5071647;28;20282;-75
2022/05/12 05:02:49;;;;;;;43.80;6.77;;;20.80;87.40;;;;;;5071659;28;20190;-74
2022/05/12 05:05:17;;;;;;;30.63;6.30;;;20.80;87.40;;;;;;5071265;28;20485;-76
2022/05/12 05:07:44;;;;;;;38.33;6.80;;;20.80;87.20;;;;;;5071598;28;20244;-77
2022/05/12 05:10:12;;;;;;;38.60;6.63;;;20.80;87.60;;;;;;5072640;28;20637;-76
2022/05/12 05:12:43;;;;;;;30.93;6.40;;;20.80;87.80;;;;;;5072206;28;20229;-76
2022/05/12 05:15:13;;;;;;;44.17;6.37;;;20.80;87.20;;;;;;5074547;28;20194;-75
2022/05/12 05:17:41;;;;;;;36.73;6.17;;;20.70;87.70;;;;;;5072914;28;20228;-75
2022/05/12 05:20:12;;;;;;;33.20;6.13;;;20.80;87.60;;;;;;5071827;28;20175;-75
2022/05/12 05:22:41;;;;;;;33.63;6.87;;;20.70;88.00;;;;;;5077906;28;20202;-75
2022/05/12 05:25:09;;;;;;;35.70;6.83;;;20.70;88.50;;;;;;5090677;28;20212;-79
2022/05/12 05:27:37;;;;;;;41.23;7.33;;;20.70;88.60;;;;;;5072449;28;20263;-74
2022/05/12 05:30:08;;;;;;;42.37;6.73;;;20.60;89.30;;;;;;5058951;28;20716;-74
2022/05/12 05:32:36;;;;;;;39.80;6.97;;;20.50;89.70;;;;;;5069401;28;20237;-74
2022/05/12 05:35:04;;;;;;;37.73;7.63;;;20.40;90.20;;;;;;5072724;28;20191;-74
2022/05/12 05:37:32;;;;;;;34.63;9.00;;;20.30;91.00;;;;;;5087396;28;20182;-75
2022/05/12 05:39:59;;;;;;;36.43;7.33;;;20.10;91.50;;;;;;5070818;28;20183;-74
2022/05/12 05:42:26;;;;;;;42.10;7.03;;;20.10;92.00;;;;;;5064602;28;20662;-76
2022/05/12 05:44:53;;;;;;;40.93;7.40;;;20.00;92.20;;;;;;5071420;28;20208;-75
2022/05/12 05:47:21;;;;;;;36.13;8.37;;;20.00;92.30;;;;;;5082369;28;20173;-75
2022/05/12 05:49:48;;;;;;;28.03;7.33;;;20.00;92.50;;;;;;5092117;28;20169;-79
2022/05/12 05:55:01;;;;;;;26.00;6.83;;;19.90;92.80;;;;;;5072747;28;20186;-75
2022/05/12 05:57:30;;;;;;;30.27;7.53;;;19.90;92.70;;;;;;5072325;28;20183;-77
2022/05/12 05:59:59;;;;;;;35.03;7.53;;;19.90;92.60;;;;;;5075746;28;20175;-78
2022/05/12 06:02:26;;;;;;;32.70;7.93;;;19.90;92.60;;;;;;5070453;28;20280;-76
2022/05/12 06:04:54;;;;;;;23.87;7.10;;;19.80;92.40;;;;;;5070599;28;20179;-80
2022/05/12 06:07:21;;;;;;;27.93;8.00;;;19.80;92.20;;;;;;5070503;28;20191;-76
2022/05/12 06:09:48;;;;;;;26.33;8.17;;;19.80;92.00;;;;;;5068555;28;20183;-77
2022/05/12 06:12:16;;;;;;;28.60;9.40;;;19.90;92.10;;;;;;5071769;28;20631;-77
2022/05/12 06:14:43;;;;;;;37.30;11.03;;;19.90;91.70;;;;;;5072550;28;20219;-74
2022/05/12 06:17:11;;;;;;;36.40;7.70;;;19.80;91.90;;;;;;5070832;28;20630;-81
2022/05/12 06:19:39;;;;;;;33.50;8.13;;;19.80;91.70;;;;;;5073637;28;20190;-79
2022/05/12 06:22:06;;;;;;;37.10;8.03;;;19.80;91.60;;;;;;5068897;28;20186;-79
2022/05/12 06:24:34;;;;;;;35.30;8.90;;;19.80;91.90;;;;;;5070755;28;20263;-88
2022/05/12 06:27:02;;;;;;;29.13;8.00;;;19.80;92.00;;;;;;5070951;28;20180;-80
2022/05/12 06:29:29;;;;;;;28.23;8.23;;;19.70;92.20;;;;;;5074676;28;20188;-83
2022/05/12 06:31:57;;;;;;;29.77;8.70;;;19.70;92.20;;;;;;5071866;28;20179;-74
2022/05/12 06:34:27;;;;;;;31.13;7.27;;;19.70;92.10;;;;;;5073272;28;20187;-80
2022/05/12 06:36:56;;;;;;;35.27;7.60;;;19.70;92.10;;;;;;5074105;28;20209;-77
2022/05/12 06:39:23;;;;;;;28.63;10.10;;;19.70;92.40;;;;;;5075263;28;20659;-80
2022/05/12 06:41:52;;;;;;;31.80;9.80;;;19.70;92.40;;;;;;5073634;28;20588;-76
2022/05/12 06:44:20;;;;;;;32.80;8.27;;;19.70;92.50;;;;;;5073787;28;20302;-85
2022/05/12 06:46:47;;;;;;;29.67;8.90;;;19.70;92.50;;;;;;5074973;28;20172;-78
2022/05/12 06:49:17;;;;;;;30.43;9.40;;;19.60;92.60;;;;;;5073865;28;20190;-79
2022/05/12 06:51:45;;;;;;;30.47;8.57;;;19.60;92.70;;;;;;5082009;28;20303;-80
2022/05/12 06:54:13;;;;;;;23.83;8.63;;;19.60;92.70;;;;;;5075110;28;20233;-76
2022/05/12 06:56:41;;;;;;;30.37;9.17;;;19.60;92.90;;;;;;5075523;28;20167;-80
2022/05/12 06:59:09;;;;;;;32.40;10.13;;;19.60;92.90;;;;;;5080944;28;20171;-77
2022/05/12 07:01:37;;;;;;;30.53;8.67;;;19.60;93.00;;;;;;5095662;28;20185;-74
2022/05/12 07:04:04;;;;;;;26.93;8.83;;;19.70;92.50;;;;;;5095101;28;20688;-76
2022/05/12 07:06:32;;;;;;;28.97;8.53;;;19.70;92.20;;;;;;5095315;28;20174;-78
2022/05/12 07:08:59;;;;;;;29.67;9.40;;;19.70;92.20;;;;;;5095628;28;20620;-78
2022/05/12 07:11:27;;;;;;;28.10;8.40;;;19.70;92.10;;;;;;5088562;28;20203;-74
2022/05/12 07:13:54;;;;;;;26.57;8.57;;;19.70;92.00;;;;;;5074642;28;20717;-75
2022/05/12 07:16:21;;;;;;;27.27;7.47;;;19.80;91.80;;;;;;5067955;28;20308;-75
2022/05/12 07:18:49;;;;;;;30.77;8.20;;;19.80;91.70;;;;;;5066010;28;20179;-76
2022/05/12 07:26:58;;;;;;;27.80;8.67;;;19.90;91.40;;;;;;5106695;28;20189;-74
2022/05/12 07:29:28;;;;;;;24.60;7.27;;;19.90;91.40;;;;;;5073426;28;20656;-75
2022/05/12 07:31:56;;;;;;;29.57;8.00;;;20.00;91.40;;;;;;5076353;28;20175;-74
2022/05/12 07:34:23;;;;;;;22.97;7.37;;;20.00;91.30;;;;;;5079223;28;20194;-75
2022/05/12 07:36:52;;;;;;;39.50;12.40;;;19.90;91.40;;;;;;5093501;28;20171;-78
2022/05/12 07:39:29;;;;;;;24.07;7.93;;;20.00;91.50;;;;;;5084196;28;20219;-76
2022/05/12 07:41:58;;;;;;;27.20;8.20;;;20.00;91.50;;;;;;5071297;28;20179;-76
2022/05/12 07:44:32;;;;;;;27.13;9.07;;;20.00;91.50;;;;;;5071811;28;20209;-73
2022/05/12 07:47:09;;;;;;;32.17;7.90;;;20.00;91.60;;;;;;5069791;28;20629;-72
2022/05/12 07:49:37;;;;;;;27.57;7.43;;;20.00;91.50;;;;;;5071841;28;20648;-72
2022/05/12 07:52:07;;;;;;;29.10;7.73;;;20.00;91.50;;;;;;5067180;28;20188;-76
2022/05/12 07:54:35;;;;;;;25.97;7.90;;;20.10;91.40;;;;;;5067117;28;20183;-76
2022/05/12 07:57:05;;;;;;;28.03;7.77;;;20.20;91.30;;;;;;5072333;28;20680;-73
2022/05/12 07:59:34;;;;;;;32.20;8.77;;;20.20;91.30;;;;;;5074012;28;20649;-73
2022/05/12 08:02:02;;;;;;;28.17;7.33;;;20.20;91.40;;;;;;5066005;28;20179;-74
2022/05/12 08:04:30;;;;;;;33.50;8.03;;;20.10;91.50;;;;;;5070304;28;20626;-75
2022/05/12 08:06:59;;;;;;;32.80;7.87;;;20.10;91.40;;;;;;5073126;28;20289;-76
2022/05/12 08:09:26;;;;;;;23.87;7.53;;;20.10;91.40;;;;;;5072814;28;20543;-75
2022/05/12 08:11:53;;;;;;;33.73;7.97;;;20.10;91.60;;;;;;5073259;28;20521;-74
2022/05/12 08:14:21;;;;;;;23.87;7.00;;;20.10;91.70;;;;;;5072780;28;20183;-76
2022/05/12 08:16:48;;;;;;;31.40;8.37;;;20.10;91.80;;;;;;5072052;28;20183;-74
2022/05/12 08:19:15;;;;;;;34.47;9.17;;;20.10;92.00;;;;;;5071065;28;20278;-74
2022/05/12 08:21:43;;;;;;;29.20;8.57;;;20.00;91.80;;;;;;5071212;28;20200;-75
2022/05/12 08:24:10;;;;;;;28.20;8.87;;;20.10;91.80;;;;;;5073075;28;20171;-74
2022/05/12 08:26:37;;;;;;;30.83;9.43;;;20.10;91.80;;;;;;5072085;28;20175;-79
2022/05/12 08:29:05;;;;;;;31.67;9.70;;;20.00;91.80;;;;;;5056430;28;20202;-78
2022/05/12 08:31:32;;;;;;;33.20;8.70;;;20.00;91.90;;;;;;5073258;28;20629;-75
2022/05/12 08:34:00;;;;;;;29.47;8.03;;;20.00;92.10;;;;;;5080247;28;20222;-74
2022/05/12 08:36:28;;;;;;;34.87;8.63;;;20.00;91.90;;;;;;5068418;28;20175;-75
2022/05/12 08:38:55;;;;;;;32.30;7.97;;;20.00;91.90;;;;;;5073067;28;20236;-75
2022/05/12 08:42:01;;;;;;;21.83;7.40;;;19.90;92.00;;;;;;5066671;28;20270;-75
2022/05/12 08:44:32;;;;;;;34.87;8.03;;;19.90;92.10;;;;;;5072161;28;20234;-74
2022/05/12 08:47:04;;;;;;;26.00;7.20;;;19.90;91.90;;;;;;5072395;28;20850;-74
2022/05/12 08:49:41;;;;;;;34.30;8.07;;;19.90;91.70;;;;;;5073098;28;20644;-76
2022/05/12 08:52:32;;;;;;;22.97;7.20;;;19.90;91.90;;;;;;5074053;28;20178;-74
2022/05/12 08:55:09;;;;;;;34.47;7.50;;;19.90;91.80;;;;;;5077301;28;20182;-75
2022/05/12 08:58:01;;;;;;;29.23;7.50;;;19.80;91.80;;;;;;5060748;28;20182;-76
2022/05/12 09:00:33;;;;;;;28.90;10.00;;;19.90;91.70;;;;;;5055910;28;20182;-79
2022/05/12 09:03:21;;;;;;;33.43;8.73;;;19.90;91.60;;;;;;5061711;28;20202;-76
2022/05/12 09:06:05;;;;;;;33.63;8.60;;;19.90;91.80;;;;;;5072138;28;20179;-77
2022/05/12 09:08:45;;;;;;;31.10;7.40;;;19.90;91.60;;;;;;5072478;28;20832;-77
2022/05/12 09:11:22;;;;;;;27.30;7.47;;;19.80;91.60;;;;;;5091158;28;20198;-76
2022/05/12 09:13:53;;;;;;;25.87;7.23;;;19.80;91.80;;;;;;5091286;28;20566;-76
2022/05/12 09:16:25;;;;;;;28.37;7.10;;;19.80;92.10;;;;;;5076541;28;20182;-74
2022/05/12 09:18:53;;;;;;;22.20;7.00;;;19.80;92.10;;;;;;5072350;28;20180;-75
2022/05/12 09:21:27;;;;;;;32.63;7.47;;;19.80;92.30;;;;;;5075792;28;20182;-74
2022/05/12 09:23:57;;;;;;;28.60;8.63;;;19.70;92.50;;;;;;5071421;28;20641;-76
2022/05/12 09:26:37;;;;;;;28.40;7.97;;;19.70;92.60;;;;;;5066319;28;20183;-76
2022/05/12 09:29:24;;;;;;;27.10;7.90;;;19.70;92.80;;;;;;5087507;28;20183;-74
2022/05/12 09:31:53;;;;;;;30.70;8.80;;;19.70;93.00;;;;;;5074231;28;20174;-77
2022/05/12 09:34:36;;;;;;;34.33;8.10;;;19.60;93.10;;;;;;5076015;28;20207;-77
2022/05/12 09:37:28;;;;;;;39.03;8.73;;;19.60;93.20;;;;;;5079523;28;20176;-76
2022/05/12 09:40:17;;;;;;;34.37;9.63;;;19.60;93.40;;;;;;5059854;28;20199;-77
2022/05/12 09:43:00;;;;;;;31.43;7.50;;;19.50;93.60;;;;;;5071630;28;20230;-77
2022/05/12 09:45:31;;;;;;;29.33;8.40;;;19.50;93.80;;;;;;5071584;28;20171;-77
2022/05/12 09:48:41;;;;;;;28.43;8.43;;;19.50;93.90;;;;;;5072279;28;20175;-76
2022/05/12 09:51:26;;;;;;;27.57;8.83;;;19.50;94.00;;;;;;5069450;28;20195;-77
2022/05/12 09:54:12;;;;;;;36.00;9.67;;;19.50;94.10;;;;;;5058675;28;20676;-78
2022/05/12 09:56:41;;;;;;;34.33;9.10;;;19.50;94.10;;;;;;5083401;28;20263;-77
2022/05/12 09:59:21;;;;;;;26.73;9.00;;;19.50;94.20;;;;;;5076972;28;20184;-75
2022/05/12 10:02:02;;;;;;;35.10;10.07;;;19.50;94.30;;;;;;5052485;28;20172;-75
2022/05/12 10:10:26;;;;;;;18.10;8.53;;;19.50;94.10;;;;;;5073010;28;20206;-77
2022/05/12 10:12:59;;;;;;;27.00;9.47;;;19.50;94.00;;;;;;5055515;28;20278;-72
2022/05/12 10:15:35;;;;;;;25.77;9.27;;;19.50;94.10;;;;;;5071405;28;20176;-73
2022/05/12 10:18:26;;;;;;;24.50;9.50;;;19.50;94.00;;;;;;5096535;28;20242;-78
2022/05/12 10:20:56;;;;;;;25.63;9.33;;;19.50;93.80;;;;;;5096274;28;20182;-77
2022/05/12 10:23:41;;;;;;;17.60;10.80;;;19.60;93.80;;;;;;5078026;28;20179;-75
2022/05/12 10:26:30;;;;;;;30.03;13.30;;;19.60;93.80;;;;;;5075488;28;20257;-79
2022/05/12 10:29:09;;;;;;;19.00;9.50;;;19.60;93.70;;;;;;5075049;28;20191;-75
2022/05/12 10:31:52;;;;;;;20.00;10.53;;;19.60;93.60;;;;;;5074694;28;20183;-77
2022/05/12 10:34:51;;;;;;;27.17;10.87;;;19.60;93.50;;;;;;5072088;28;20218;-74
2022/05/12 10:37:38;;;;;;;28.33;11.50;;;19.60;93.50;;;;;;5090432;28;20620;-79
2022/05/12 10:40:30;;;;;;;28.33;11.60;;;19.60;93.60;;;;;;5081443;28;20187;-76
2022/05/12 10:43:11;;;;;;;37.87;12.47;;;19.60;93.80;;;;;;5077972;28;20222;-75
2022/05/12 10:45:55;;;;;;;30.40;12.07;;;19.50;93.80;;;;;;5070475;28;20347;-77
2022/05/12 10:48:39;;;;;;;28.97;11.00;;;19.60;93.90;;;;;;5095467;28;20183;-75
2022/05/12 10:51:29;;;;;;;36.47;11.93;;;19.60;93.80;;;;;;5095112;28;20175;-74
2022/05/12 10:54:09;;;;;;;37.83;12.50;;;19.60;93.90;;;;;;5055198;28;20243;-77
2022/05/12 10:56:37;;;;;;;31.47;11.50;;;19.60;94.00;;;;;;5077105;28;20175;-75
2022/05/12 10:59:27;;;;;;;28.87;10.80;;;19.60;94.00;;;;;;5075671;28;22073;-78
2022/05/12 11:02:02;;;;;;;29.33;10.50;;;19.50;93.80;;;;;;5082050;28;20175;-76
2022/05/12 11:04:41;;;;;;;34.90;11.20;;;19.60;93.50;;;;;;5075496;28;20190;-75
2022/05/12 11:07:32;;;;;;;29.67;10.67;;;19.60;93.50;;;;;;5081557;28;20190;-76
2022/05/12 11:10:29;;;;;;;34.73;14.90;;;19.60;93.40;;;;;;5088969;28;20202;-78
2022/05/12 11:13:02;;;;;;;30.07;10.00;;;19.60;93.30;;;;;;5095342;28;20210;-77
2022/05/12 11:15:44;;;;;;;29.10;9.87;;;19.60;93.30;;;;;;5073379;28;20264;-76
2022/05/12 11:18:21;;;;;;;25.67;10.37;;;19.60;93.30;;;;;;5074649;28;20171;-76
2022/05/12 11:21:00;;;;;;;32.40;10.30;;;19.60;93.20;;;;;;5074830;28;20672;-76
2022/05/12 11:23:51;;;;;;;30.20;9.93;;;19.60;93.10;;;;;;5075194;28;20711;-74
2022/05/12 11:26:50;;;;;;;25.03;10.23;;;19.60;93.00;;;;;;5075487;28;20241;-74
2022/05/12 11:29:48;;;;;;;40.73;10.50;;;19.60;92.80;;;;;;5057758;28;20286;-75
2022/05/12 11:32:42;;;;;;;31.30;9.67;;;19.60;92.80;;;;;;5071526;28;20189;-74
2022/05/12 11:35:30;;;;;;;27.70;9.80;;;19.70;92.90;;;;;;5088994;28;20179;-76
2022/05/12 11:38:00;;;;;;;27.93;12.17;;;19.70;92.80;;;;;;5074012;28;20625;-78
2022/05/12 11:40:48;;;;;;;32.90;10.43;;;19.60;92.90;;;;;;5074802;28;20202;-75
2022/05/12 11:46:37;;;;;;;25.37;7.90;;;19.60;93.00;;;;;;5074723;28;20189;-77
2022/05/12 11:49:21;;;;;;;30.57;7.90;;;19.50;93.20;;;;;;5074840;28;20217;-75
2022/05/12 11:52:08;;;;;;;25.00;8.23;;;19.50;93.20;;;;;;5074467;28;20183;-78
2022/05/12 11:54:48;;;;;;;26.13;8.60;;;19.50;93.20;;;;;;5073288;28;20183;-76
2022/05/12 11:57:38;;;;;;;30.20;8.63;;;19.50;93.30;;;;;;5074816;28;20220;-77
2022/05/12 12:00:34;;;;;;;25.90;8.67;;;19.40;93.30;;;;;;5082699;28;20532;-77
2022/05/12 12:03:28;;;;;;;29.53;8.97;;;19.40;93.20;;;;;;5054474;28;20180;-77
2022/05/12 12:05:55;;;;;;;24.37;7.70;;;19.50;93.30;;;;;;5065165;28;20240;-77
2022/05/12 12:08:31;;;;;;;29.17;8.33;;;19.40;93.40;;;;;;5074602;28;20179;-77
2022/05/12 12:11:22;;;;;;;31.03;9.13;;;19.40;93.40;;;;;;5074364;28;20524;-77
2022/05/12 12:13:56;;;;;;;28.23;8.30;;;19.40;93.40;;;;;;5068467;28;20219;-77
2022/05/12 12:16:48;;;;;;;24.03;8.03;;;19.40;93.40;;;;;;5074979;28;20257;-78
2022/05/12 12:19:52;;;;;;;21.10;7.17;;;19.30;93.40;;;;;;5054929;28;20187;-78
2022/05/12 12:22:43;;;;;;;27.03;7.47;;;19.40;93.40;;;;;;5071111;28;20179;-77
2022/05/12 12:25:10;;;;;;;31.27;7.73;;;19.40;93.40;;;;;;5073304;28;20183;-77
2022/05/12 12:28:03;;;;;;;26.60;6.80;;;19.30;93.40;;;;;;5073889;28;20654;-77
2022/05/12 12:30:49;;;;;;;22.23;6.83;;;19.30;93.50;;;;;;5072924;28;20195;-77
2022/05/12 12:33:19;;;;;;;27.33;7.90;;;19.30;93.50;;;;;;5055869;28;20223;-77
2022/05/12 12:36:15;;;;;;;23.83;7.37;;;19.30;93.50;;;;;;5068914;28;20270;-77
2022/05/12 12:38:48;;;;;;;22.33;6.77;;;19.30;93.60;;;;;;5080708;28;20327;-77
2022/05/12 12:41:38;;;;;;;22.83;6.43;;;19.30;93.60;;;;;;5060434;28;20190;-77
2022/05/12 12:44:23;;;;;;;22.67;7.07;;;19.30;93.70;;;;;;5093230;28;20227;-77
2022/05/12 12:47:03;;;;;;;23.70;6.90;;;19.30;93.70;;;;;;5093081;28;20636;-77
2022/05/12 12:49:47;;;;;;;23.67;6.53;;;19.30;93.70;;;;;;5063340;28;20243;-76
2022/05/12 12:52:16;;;;;;;18.37;6.77;;;19.30;93.80;;;;;;5089883;28;20181;-77
2022/05/12 12:57:43;;;;;;;20.67;7.10;;;19.30;93.80;;;;;;5073653;28;20539;-76
2022/05/12 13:00:27;;;;;;;21.30;6.83;;;19.30;93.90;;;;;;5073012;28;20171;-77
2022/05/12 13:03:07;;;;;;;29.23;6.83;;;19.30;94.00;;;;;;5073492;28;20229;-77
2022/05/12 13:05:36;;;;;;;26.80;7.07;;;19.30;94.00;;;;;;5072798;28;20175;-77
2022/05/12 13:08:22;;;;;;;22.90;7.00;;;19.30;94.10;;;;;;5072984;28;20244;-77
2022/05/12 13:10:55;;;;;;;20.20;7.30;;;19.30;94.10;;;;;;5073220;28;20168;-75
2022/05/12 13:13:23;;;;;;;18.97;7.67;;;19.30;93.90;;;;;;5072757;28;20661;-77
2022/05/12 13:16:02;;;;;;;20.00;7.10;;;19.30;93.70;;;;;;5066712;28;20757;-78
2022/05/12 13:18:35;;;;;;;22.53;7.17;;;19.30;93.50;;;;;;5073312;28;20190;-77
2022/05/12 13:21:05;;;;;;;15.40;6.90;;;19.30;93.40;;;;;;5072977;28;20179;-77
2022/05/12 13:23:41;;;;;;;22.70;6.83;;;19.30;93.30;;;;;;5073027;28;20661;-77
2022/05/12 13:26:09;;;;;;;23.00;7.23;;;19.30;93.30;;;;;;5084038;28;20182;-77
2022/05/12 13:28:38;;;;;;;19.40;7.37;;;19.30;93.40;;;;;;5072939;28;20210;-77
2022/05/12 13:31:16;;;;;;;21.40;7.63;;;19.30;93.40;;;;;;5072640;28;20236;-77
2022/05/12 13:34:05;;;;;;;15.77;7.17;;;19.30;93.30;;;;;;5072284;28;20210;-75